createdAt,value
2023-03-07T00:01:25.536Z,10.00
2023-03-07T00:03:53.485Z,9.73
2023-03-07T00:06:21.885Z,10.97
2023-03-07T00:08:52.978Z,11.87
2023-03-07T00:11:21.080Z,10.00
2023-03-07T00:13:50.153Z,9.10
2023-03-07T00:16:18.513Z,11.93
2023-03-07T00:18:46.717Z,10.23
2023-03-07T00:21:16.042Z,9.27
2023-03-07T00:23:44.365Z,9.13
2023-03-07T00:26:15.173Z,8.07
2023-03-07T00:28:43.072Z,7.67
2023-03-07T00:31:11.707Z,8.87
2023-03-07T00:33:39.710Z,8.53
2023-03-07T00:36:08.445Z,8.93
2023-03-07T00:38:36.995Z,7.13
2023-03-07T00:41:06.934Z,9.13
2023-03-07T00:43:37.075Z,9.80
2023-03-07T00:46:05.800Z,9.10
2023-03-07T00:48:34.190Z,8.57
2023-03-07T00:51:04.434Z,8.73
2023-03-07T00:53:35.874Z,8.33
2023-03-07T00:56:04.691Z,8.90
2023-03-07T00:58:33.395Z,7.40
2023-03-07T01:01:03.283Z,7.53
2023-03-07T01:03:32.366Z,6.97
2023-03-07T01:06:03.433Z,6.57
2023-03-07T01:08:31.526Z,8.03
2023-03-07T01:11:01.338Z,8.07
2023-03-07T01:13:29.508Z,7.57
2023-03-07T01:15:57.800Z,6.97
2023-03-07T01:18:27.151Z,8.33
2023-03-07T01:20:54.982Z,6.60
2023-03-07T01:23:23.082Z,6.57
2023-03-07T01:25:51.124Z,7.17
2023-03-07T01:28:18.987Z,7.30
2023-03-07T01:30:46.655Z,7.23
2023-03-07T01:33:14.348Z,6.53
2023-03-07T01:35:45.348Z,5.93
2023-03-07T01:38:13.134Z,6.37
2023-03-07T01:40:41.397Z,8.30
2023-03-07T01:43:26.037Z,7.07
2023-03-07T01:46:23.947Z,8.47
2023-03-07T01:48:52.944Z,6.10
2023-03-07T01:51:22.490Z,7.10
2023-03-07T01:53:51.707Z,6.90
2023-03-07T01:56:20.303Z,6.87
2023-03-07T01:58:48.052Z,7.57
2023-03-07T02:01:16.379Z,7.73
2023-03-07T02:03:48.785Z,7.20
2023-03-07T02:06:16.709Z,6.67
2023-03-07T02:08:46.715Z,5.57
2023-03-07T02:11:14.924Z,7.37
2023-03-07T02:13:42.800Z,6.57
2023-03-07T02:16:10.769Z,6.97
2023-03-07T02:18:42.209Z,5.63
2023-03-07T02:21:15.168Z,7.20
2023-03-07T02:23:49.076Z,6.80
2023-03-07T02:26:22.327Z,6.47
2023-03-07T02:28:52.543Z,6.30
2023-03-07T02:31:20.387Z,7.73
2023-03-07T02:33:48.212Z,8.33
2023-03-07T02:36:18.547Z,6.77
2023-03-07T02:38:48.871Z,7.07
2023-03-07T02:41:20.666Z,7.50
2023-03-07T02:43:48.661Z,7.43
2023-03-07T02:46:17.827Z,7.87
2023-03-07T02:48:45.672Z,7.47
2023-03-07T02:51:13.463Z,7.90
2023-03-07T02:53:41.604Z,8.10
2023-03-07T02:56:09.430Z,7.37
2023-03-07T02:58:37.242Z,6.87
2023-03-07T03:01:05.175Z,5.77
2023-03-07T03:03:34.850Z,6.83
2023-03-07T03:06:02.691Z,7.53
2023-03-07T03:08:30.880Z,7.40
2023-03-07T03:10:58.831Z,7.60
2023-03-07T03:13:26.755Z,7.10
2023-03-07T03:15:56.495Z,7.13
2023-03-07T03:18:24.505Z,7.23
2023-03-07T03:20:53.963Z,7.83
2023-03-07T03:23:22.038Z,6.97
2023-03-07T03:25:58.619Z,7.50
2023-03-07T03:28:26.688Z,7.67
2023-03-07T03:31:01.003Z,7.23
2023-03-07T03:33:30.198Z,6.87
2023-03-07T03:36:00.406Z,6.97
2023-03-07T03:38:28.338Z,7.27
2023-03-07T03:40:56.473Z,5.90
2023-03-07T03:43:24.317Z,5.83
2023-03-07T03:45:55.783Z,6.83
2023-03-07T03:48:23.671Z,7.93
2023-03-07T03:50:51.536Z,7.30
2023-03-07T03:53:20.665Z,8.57
2023-03-07T03:55:48.574Z,8.53
2023-03-07T03:58:16.324Z,9.83
2023-03-07T04:00:45.713Z,9.30
2023-03-07T04:03:13.730Z,10.07
2023-03-07T04:05:41.618Z,11.47
2023-03-07T04:08:10.378Z,12.10
2023-03-07T04:10:41.902Z,10.20
2023-03-07T04:13:10.451Z,10.67
2023-03-07T04:15:38.314Z,12.77
2023-03-07T04:18:06.183Z,10.53
2023-03-07T04:20:34.294Z,9.47
2023-03-07T04:23:01.966Z,9.07
2023-03-07T04:25:29.711Z,8.90
2023-03-07T04:27:59.063Z,8.07
2023-03-07T04:30:27.402Z,8.60
2023-03-07T04:32:55.308Z,8.47
2023-03-07T04:35:23.274Z,8.90
2023-03-07T04:37:52.004Z,9.63
2023-03-07T04:40:19.725Z,8.97
2023-03-07T04:42:47.772Z,8.57
2023-03-07T04:45:17.003Z,8.70
2023-03-07T04:47:44.946Z,9.63
2023-03-07T04:50:12.758Z,9.57
2023-03-07T04:52:40.485Z,9.30
2023-03-07T04:55:08.621Z,9.07
2023-03-07T04:57:36.481Z,9.40
2023-03-07T05:00:06.506Z,9.70
2023-03-07T05:02:35.942Z,10.90
2023-03-07T05:05:04.279Z,9.30
2023-03-07T05:07:32.557Z,10.80
2023-03-07T05:10:00.282Z,11.40
2023-03-07T05:12:28.262Z,9.70
2023-03-07T05:14:56.052Z,13.00
2023-03-07T05:17:25.815Z,11.63
2023-03-07T05:19:56.070Z,9.93
2023-03-07T05:22:23.877Z,11.57
2023-03-07T05:24:51.551Z,9.87
2023-03-07T05:27:19.337Z,9.70
2023-03-07T05:29:50.000Z,12.40
2023-03-07T05:32:18.201Z,12.77
2023-03-07T05:34:47.184Z,12.50
2023-03-07T05:37:16.495Z,12.13
2023-03-07T05:39:44.972Z,11.23
2023-03-07T05:42:13.443Z,9.60
2023-03-07T05:44:41.100Z,10.70
2023-03-07T05:47:10.170Z,9.17
2023-03-07T05:49:37.867Z,8.67
2023-03-07T05:52:05.816Z,8.57
2023-03-07T05:54:35.042Z,10.37
2023-03-07T05:57:03.121Z,8.70
2023-03-07T05:59:31.038Z,8.67
2023-03-07T06:01:58.799Z,9.37
2023-03-07T06:04:26.960Z,8.73
2023-03-07T06:06:54.772Z,8.10
2023-03-07T06:09:23.849Z,9.57
2023-03-07T06:11:53.254Z,8.33
2023-03-07T06:14:22.452Z,10.30
2023-03-07T06:16:50.370Z,9.00
2023-03-07T06:19:18.106Z,8.73
2023-03-07T06:21:45.996Z,8.17
2023-03-07T06:24:20.464Z,9.27
2023-03-07T06:26:48.364Z,9.20
2023-03-07T06:29:17.700Z,9.27
2023-03-07T06:31:45.810Z,9.33
2023-03-07T06:34:15.163Z,9.80
2023-03-07T06:36:44.032Z,8.97
2023-03-07T06:39:11.968Z,7.83
2023-03-07T06:41:39.790Z,9.33
2023-03-07T06:44:07.548Z,8.93
2023-03-07T06:46:36.726Z,9.43
2023-03-07T06:49:04.654Z,9.27
2023-03-07T06:51:32.464Z,9.27
2023-03-07T06:54:00.613Z,9.43
2023-03-07T06:56:30.007Z,8.27
2023-03-07T06:58:57.912Z,8.00
2023-03-07T07:01:25.632Z,8.77
2023-03-07T07:03:54.921Z,7.70
2023-03-07T07:06:22.811Z,7.33
2023-03-07T07:08:50.806Z,7.80
2023-03-07T07:11:18.640Z,9.37
2023-03-07T07:13:46.862Z,6.67
2023-03-07T07:16:14.679Z,6.40
2023-03-07T07:18:42.359Z,6.40
2023-03-07T07:21:12.244Z,7.40
2023-03-07T07:23:40.200Z,7.47
2023-03-07T07:26:08.030Z,6.57
2023-03-07T07:28:39.399Z,5.77
2023-03-07T07:31:07.170Z,5.93
2023-03-07T07:33:34.922Z,5.77
2023-03-07T07:36:05.056Z,6.53
2023-03-07T07:38:34.429Z,7.43
2023-03-07T07:41:02.522Z,5.93
2023-03-07T07:43:30.367Z,6.67
2023-03-07T07:45:58.240Z,6.20
2023-03-07T07:48:25.940Z,6.80
2023-03-07T07:50:53.897Z,7.07
2023-03-07T07:53:22.028Z,7.80
2023-03-07T07:55:51.558Z,8.37
2023-03-07T07:58:20.020Z,5.83
2023-03-07T08:00:48.431Z,11.97
2023-03-07T08:03:16.202Z,9.57
2023-03-07T08:05:45.342Z,7.17
2023-03-07T08:08:13.193Z,6.10
2023-03-07T08:10:43.316Z,5.43
2023-03-07T08:13:15.443Z,6.43
2023-03-07T08:15:43.638Z,7.37
2023-03-07T08:18:12.231Z,6.80
2023-03-07T08:20:41.710Z,6.80
2023-03-07T08:23:10.942Z,6.53
2023-03-07T08:25:38.963Z,6.63
2023-03-07T08:28:07.051Z,7.30
2023-03-07T08:30:37.121Z,7.77
2023-03-07T08:33:05.068Z,6.10
2023-03-07T08:35:33.205Z,6.00
2023-03-07T08:38:01.337Z,8.37
2023-03-07T08:40:29.840Z,7.40
2023-03-07T08:42:58.127Z,7.43
2023-03-07T08:45:26.102Z,8.70
2023-03-07T08:47:55.878Z,8.27
2023-03-07T08:50:24.583Z,6.70
2023-03-07T08:52:53.846Z,7.83
2023-03-07T08:55:21.732Z,6.40
2023-03-07T08:57:49.440Z,4.30
2023-03-07T09:00:17.989Z,4.90
2023-03-07T09:02:48.660Z,5.60
2023-03-07T09:05:18.548Z,6.10
2023-03-07T09:07:46.492Z,5.30
2023-03-07T09:10:14.168Z,5.77
2023-03-07T09:12:42.153Z,6.87
2023-03-07T09:15:10.539Z,5.77
2023-03-07T09:17:38.692Z,6.10
2023-03-07T09:20:07.240Z,5.97
2023-03-07T09:22:36.471Z,4.93
2023-03-07T09:25:04.273Z,4.63
2023-03-07T09:27:32.177Z,5.20
2023-03-07T09:29:59.939Z,4.53
2023-03-07T09:32:27.761Z,5.00
2023-03-07T09:34:55.591Z,4.03
2023-03-07T09:37:23.845Z,4.80
2023-03-07T09:39:53.583Z,4.43
2023-03-07T09:42:25.058Z,5.43
2023-03-07T09:45:02.098Z,4.40
2023-03-07T09:47:39.237Z,3.97
2023-03-07T09:50:12.707Z,4.93
2023-03-07T09:52:41.553Z,4.63
2023-03-07T09:55:14.745Z,4.10
2023-03-07T09:57:48.054Z,4.27
2023-03-07T10:00:21.303Z,6.30
2023-03-07T10:02:50.430Z,4.90
2023-03-07T10:05:25.448Z,4.73
2023-03-07T10:07:54.806Z,4.63
2023-03-07T10:10:25.546Z,4.37
2023-03-07T10:13:07.837Z,4.10
2023-03-07T10:15:42.622Z,4.00
2023-03-07T10:18:16.364Z,4.57
2023-03-07T10:20:47.344Z,4.33
2023-03-07T10:23:24.885Z,4.07
2023-03-07T10:25:55.235Z,4.33
2023-03-07T10:28:24.956Z,4.70
2023-03-07T10:30:53.429Z,4.37
2023-03-07T10:33:21.595Z,4.33
2023-03-07T10:35:51.909Z,4.30
2023-03-07T10:38:24.398Z,3.90
2023-03-07T10:40:55.709Z,4.83
2023-03-07T10:43:26.905Z,4.80
2023-03-07T10:45:57.979Z,4.27
2023-03-07T10:48:26.813Z,5.40
2023-03-07T10:50:58.012Z,4.07
2023-03-07T10:53:26.577Z,3.97
2023-03-07T10:55:54.696Z,3.97
2023-03-07T10:58:23.965Z,7.07
2023-03-07T11:01:04.279Z,3.23
2023-03-07T11:03:52.833Z,3.53
2023-03-07T11:06:27.816Z,2.87
2023-03-07T11:08:56.251Z,3.37
2023-03-07T11:11:25.028Z,6.47
2023-03-07T11:14:05.811Z,3.53
2023-03-07T11:16:35.559Z,3.20
2023-03-07T11:19:04.262Z,3.70
2023-03-07T11:21:33.521Z,3.20
2023-03-07T11:24:02.278Z,3.23
2023-03-07T11:26:32.706Z,3.80
2023-03-07T11:29:08.456Z,3.07
2023-03-07T11:31:39.873Z,2.40
2023-03-07T11:34:14.640Z,3.17
2023-03-07T11:36:44.656Z,3.00
2023-03-07T11:39:17.816Z,2.63
2023-03-07T11:41:47.711Z,2.60
2023-03-07T11:44:23.078Z,3.13
2023-03-07T11:47:00.472Z,3.03
2023-03-07T11:49:36.642Z,3.00
2023-03-07T11:52:09.694Z,2.77
2023-03-07T11:54:41.706Z,3.10
2023-03-07T11:57:13.182Z,2.50
2023-03-07T11:59:50.238Z,1.70
2023-03-07T12:02:36.090Z,2.17
2023-03-07T12:05:11.327Z,3.23
2023-03-07T12:07:54.505Z,2.37
2023-03-07T12:10:30.972Z,2.10
2023-03-07T12:13:19.727Z,2.00
2023-03-07T12:15:54.599Z,1.93
2023-03-07T12:18:30.283Z,2.00
2023-03-07T12:21:05.440Z,1.80
2023-03-07T12:23:38.040Z,1.87
2023-03-07T12:26:08.159Z,2.30
2023-03-07T12:28:41.264Z,1.70
2023-03-07T12:31:12.396Z,1.90
2023-03-07T12:33:55.255Z,1.20
2023-03-07T12:36:27.869Z,1.20
2023-03-07T12:38:58.757Z,1.30
2023-03-07T12:41:36.752Z,1.30
2023-03-07T12:44:07.180Z,1.03
2023-03-07T12:46:39.015Z,1.50
2023-03-07T12:49:16.113Z,1.70
2023-03-07T12:51:47.481Z,1.43
2023-03-07T12:54:19.046Z,1.77
2023-03-07T12:56:50.543Z,1.67
2023-03-07T12:59:20.735Z,2.17
2023-03-07T13:01:50.134Z,1.40
2023-03-07T13:04:19.636Z,1.60
2023-03-07T13:06:49.106Z,1.20
2023-03-07T13:09:19.495Z,1.10
2023-03-07T13:12:05.842Z,1.73
2023-03-07T13:14:40.631Z,1.30
2023-03-07T13:17:10.754Z,1.40
2023-03-07T13:19:59.137Z,1.10
2023-03-07T13:22:45.717Z,1.63
2023-03-07T13:25:33.790Z,1.10
2023-03-07T13:28:03.594Z,1.27
2023-03-07T13:30:32.519Z,1.27
2023-03-07T13:33:01.339Z,1.27
2023-03-07T13:35:46.536Z,2.13
2023-03-07T13:38:32.453Z,1.30
2023-03-07T13:41:00.775Z,1.67
2023-03-07T13:43:59.943Z,1.40
2023-03-07T13:46:58.971Z,1.63
2023-03-07T13:49:51.169Z,1.50
2023-03-07T13:52:39.273Z,2.00
2023-03-07T13:55:21.032Z,1.77
2023-03-07T13:57:49.421Z,1.80
2023-03-07T14:00:24.229Z,1.87
2023-03-07T14:02:53.564Z,1.53
2023-03-07T14:05:23.250Z,1.47
2023-03-07T14:07:51.903Z,1.73
2023-03-07T14:10:22.890Z,1.60
2023-03-07T14:13:12.358Z,1.23
2023-03-07T14:15:45.138Z,1.60
2023-03-07T14:18:21.985Z,1.40
2023-03-07T14:20:56.008Z,2.07
2023-03-07T14:23:30.609Z,1.20
2023-03-07T14:26:03.674Z,1.60
2023-03-07T14:28:31.731Z,1.57
2023-03-07T14:31:00.676Z,1.70
2023-03-07T14:33:32.859Z,1.70
2023-03-07T14:36:02.110Z,1.27
2023-03-07T14:38:30.061Z,1.80
2023-03-07T14:41:16.782Z,1.50
2023-03-07T14:43:50.399Z,1.50
2023-03-07T14:46:24.367Z,1.90
2023-03-07T14:49:05.751Z,1.90
2023-03-07T14:51:36.790Z,1.60
2023-03-07T14:54:06.879Z,1.73
2023-03-07T14:56:35.287Z,2.10
2023-03-07T14:59:04.280Z,1.70
2023-03-07T15:01:35.416Z,2.43
2023-03-07T15:04:03.820Z,2.00
2023-03-07T15:06:32.074Z,1.87
2023-03-07T15:09:05.344Z,1.80
2023-03-07T15:11:35.561Z,2.57
2023-03-07T15:14:06.044Z,1.80
2023-03-07T15:16:37.466Z,1.67
2023-03-07T15:19:06.966Z,2.10
2023-03-07T15:21:38.350Z,1.90
2023-03-07T15:24:15.978Z,1.77
2023-03-07T15:26:49.283Z,1.43
2023-03-07T15:29:18.378Z,2.07
2023-03-07T15:31:53.176Z,1.80
2023-03-07T15:34:25.624Z,2.00
2023-03-07T15:36:53.852Z,2.57
2023-03-07T15:39:34.703Z,1.97
2023-03-07T15:42:04.794Z,2.03
2023-03-07T15:44:33.164Z,1.73
2023-03-07T15:47:04.206Z,2.00
2023-03-07T15:49:39.384Z,1.97
2023-03-07T15:52:07.324Z,1.93
2023-03-07T15:54:38.912Z,2.20
2023-03-07T15:57:08.311Z,1.80
2023-03-07T15:59:38.414Z,2.10
2023-03-07T16:02:25.084Z,1.57
2023-03-07T16:04:53.708Z,2.07
2023-03-07T16:07:21.508Z,2.37
2023-03-07T16:09:51.755Z,2.30
2023-03-07T16:12:21.209Z,2.10
2023-03-07T16:14:49.093Z,2.53
2023-03-07T16:17:18.913Z,2.77
2023-03-07T16:19:46.689Z,2.50
2023-03-07T16:22:15.682Z,2.17
2023-03-07T16:24:43.728Z,2.40
2023-03-07T16:27:15.224Z,1.70
2023-03-07T16:29:43.850Z,2.33
2023-03-07T16:32:13.596Z,2.10
2023-03-07T16:34:43.360Z,2.10
2023-03-07T16:37:13.436Z,2.57
2023-03-07T16:39:41.500Z,2.33
2023-03-07T16:42:15.803Z,2.97
2023-03-07T16:44:45.225Z,2.67
2023-03-07T16:47:13.924Z,3.30
2023-03-07T16:49:41.789Z,1.90
2023-03-07T16:52:12.692Z,2.50
2023-03-07T16:54:40.793Z,2.50
2023-03-07T16:57:12.064Z,2.50
2023-03-07T16:59:42.558Z,2.03
2023-03-07T17:02:15.792Z,2.10
2023-03-07T17:04:44.433Z,2.47
2023-03-07T17:07:16.687Z,2.00
2023-03-07T17:09:44.435Z,1.87
2023-03-07T17:12:12.625Z,2.27
2023-03-07T17:14:40.736Z,2.23
2023-03-07T17:17:08.724Z,2.30
2023-03-07T17:19:37.821Z,2.47
2023-03-07T17:22:05.959Z,2.00
2023-03-07T17:24:33.644Z,2.27
2023-03-07T17:27:03.628Z,2.43
2023-03-07T17:29:33.629Z,2.13
2023-03-07T17:32:01.554Z,2.90
2023-03-07T17:34:30.305Z,2.57
2023-03-07T17:37:00.482Z,2.37
2023-03-07T17:39:29.750Z,2.10
2023-03-07T17:41:58.131Z,3.03
2023-03-07T17:44:26.652Z,2.30
2023-03-07T17:46:55.349Z,1.90
2023-03-07T17:49:23.624Z,2.00
2023-03-07T17:51:53.582Z,2.63
2023-03-07T17:54:23.039Z,1.93
2023-03-07T17:56:51.046Z,2.37
2023-03-07T17:59:19.047Z,2.17
2023-03-07T18:01:46.769Z,2.07
2023-03-07T18:04:14.830Z,2.40
2023-03-07T18:06:42.617Z,2.30
2023-03-07T18:09:10.764Z,2.93
2023-03-07T18:11:40.362Z,2.30
2023-03-07T18:14:15.431Z,3.13
2023-03-07T18:16:44.189Z,2.23
2023-03-07T18:19:25.461Z,2.90
2023-03-07T18:21:53.886Z,2.33
2023-03-07T18:24:25.669Z,2.60
2023-03-07T18:26:55.916Z,3.27
2023-03-07T18:29:24.079Z,2.90
2023-03-07T18:31:51.910Z,2.87
2023-03-07T18:34:19.709Z,2.87
2023-03-07T18:36:52.049Z,3.07
2023-03-07T18:39:23.026Z,3.90
2023-03-07T18:41:50.915Z,3.20
2023-03-07T18:44:20.114Z,3.30
2023-03-07T18:46:48.441Z,3.30
2023-03-07T18:49:16.281Z,3.97
2023-03-07T18:51:46.183Z,3.73
2023-03-07T18:54:14.309Z,4.00
2023-03-07T18:56:43.045Z,3.80
2023-03-07T18:59:10.729Z,4.10
2023-03-07T19:01:41.084Z,3.43
2023-03-07T19:04:09.334Z,5.10
2023-03-07T19:06:38.910Z,4.13
2023-03-07T19:09:06.632Z,4.20
2023-03-07T19:11:36.075Z,3.50
2023-03-07T19:14:03.896Z,4.00
2023-03-07T19:16:31.751Z,4.27
2023-03-07T19:19:01.392Z,4.00
2023-03-07T19:21:29.848Z,4.13
2023-03-07T19:23:59.593Z,4.00
2023-03-07T19:26:27.791Z,4.07
2023-03-07T19:28:56.355Z,3.40
2023-03-07T19:31:24.831Z,4.20
2023-03-07T19:33:53.567Z,3.37
2023-03-07T19:36:24.638Z,4.40
2023-03-07T19:38:54.813Z,4.77
2023-03-07T19:41:23.747Z,4.50
2023-03-07T19:43:51.576Z,4.60
2023-03-07T19:46:20.171Z,3.27
2023-03-07T19:48:47.992Z,4.90
2023-03-07T19:51:16.981Z,5.83
2023-03-07T19:53:46.754Z,5.23
2023-03-07T19:56:17.329Z,6.07
2023-03-07T19:58:45.452Z,4.27
2023-03-07T20:01:14.660Z,5.10
2023-03-07T20:03:42.424Z,5.97
2023-03-07T20:06:12.095Z,6.20
2023-03-07T20:08:39.876Z,7.33
2023-03-07T20:11:13.430Z,6.97
2023-03-07T20:13:42.421Z,6.93
2023-03-07T20:16:39.732Z,6.40
2023-03-07T20:19:08.975Z,6.33
2023-03-07T20:21:36.987Z,5.80
2023-03-07T20:24:05.300Z,5.77
2023-03-07T20:26:35.177Z,6.73
2023-03-07T20:29:04.136Z,4.67
2023-03-07T20:31:32.471Z,4.40
2023-03-07T20:34:01.182Z,5.77
2023-03-07T20:36:29.839Z,6.00
2023-03-07T20:38:59.310Z,5.83
2023-03-07T20:41:28.318Z,6.17
2023-03-07T20:43:58.631Z,5.67
2023-03-07T20:46:26.640Z,6.20
2023-03-07T20:48:55.116Z,6.37
2023-03-07T20:51:23.835Z,5.13
2023-03-07T20:53:52.774Z,7.30
2023-03-07T20:56:23.356Z,6.00
2023-03-07T20:58:51.133Z,6.77
2023-03-07T21:01:20.679Z,6.60
2023-03-07T21:03:49.410Z,7.67
2023-03-07T21:06:17.659Z,6.83
2023-03-07T21:08:47.567Z,6.40
2023-03-07T21:11:16.589Z,6.07
2023-03-07T21:13:45.594Z,6.50
2023-03-07T21:16:14.305Z,6.60
2023-03-07T21:18:43.912Z,7.37
2023-03-07T21:21:13.296Z,6.63
2023-03-07T21:23:41.406Z,4.10
2023-03-07T21:26:10.403Z,5.77
2023-03-07T21:28:38.258Z,7.17
2023-03-07T21:31:08.166Z,6.73
2023-03-07T21:33:36.598Z,6.40
2023-03-07T21:36:05.929Z,6.20
2023-03-07T21:38:34.872Z,6.33
2023-03-07T21:41:02.949Z,7.37
2023-03-07T21:43:32.362Z,6.97
2023-03-07T21:46:00.574Z,8.07
2023-03-07T21:48:28.589Z,7.37
2023-03-07T21:50:56.934Z,7.30
2023-03-07T21:53:26.250Z,8.00
2023-03-07T21:55:54.420Z,8.43
2023-03-07T21:58:22.717Z,7.53
2023-03-07T22:00:53.670Z,7.47
2023-03-07T22:03:23.932Z,8.43
2023-03-07T22:05:52.015Z,8.27
2023-03-07T22:08:20.532Z,8.10
2023-03-07T22:10:59.423Z,8.10
2023-03-07T22:13:35.285Z,9.07
2023-03-07T22:16:04.332Z,8.57
2023-03-07T22:18:33.116Z,8.40
2023-03-07T22:21:01.022Z,8.27
2023-03-07T22:23:28.984Z,8.17
2023-03-07T22:26:03.187Z,8.47
2023-03-07T22:28:31.057Z,8.77
2023-03-07T22:31:01.869Z,7.50
2023-03-07T22:33:29.648Z,7.50
2023-03-07T22:35:58.636Z,7.43
2023-03-07T22:38:26.621Z,7.80
2023-03-07T22:40:54.465Z,6.10
2023-03-07T22:43:23.625Z,7.03
2023-03-07T22:45:52.520Z,7.03
2023-03-07T22:48:20.261Z,6.23
2023-03-07T22:50:48.140Z,5.97
2023-03-07T22:53:16.427Z,6.30
2023-03-07T22:55:44.552Z,5.50
2023-03-07T22:58:12.429Z,5.70
2023-03-07T23:00:42.371Z,5.73
2023-03-07T23:03:10.715Z,6.03
2023-03-07T23:05:39.883Z,5.77
2023-03-07T23:08:07.700Z,5.40
2023-03-07T23:10:35.653Z,5.57
2023-03-07T23:13:03.564Z,5.43
2023-03-07T23:15:31.443Z,6.17
2023-03-07T23:18:00.946Z,5.97
2023-03-07T23:20:30.331Z,5.50
2023-03-07T23:22:57.993Z,5.33
2023-03-07T23:25:25.861Z,6.30
2023-03-07T23:27:54.293Z,5.70
2023-03-07T23:30:22.106Z,5.10
2023-03-07T23:32:49.942Z,5.57
2023-03-07T23:35:19.383Z,5.33
2023-03-07T23:37:48.556Z,5.53
2023-03-07T23:40:18.734Z,5.93
2023-03-07T23:42:46.495Z,6.10
2023-03-07T23:45:14.443Z,5.97
2023-03-07T23:47:42.290Z,5.53
2023-03-07T23:50:10.960Z,5.27
2023-03-07T23:52:40.442Z,5.20
2023-03-07T23:55:09.375Z,4.47
2023-03-07T23:57:37.309Z,5.23
